sensor_id;sensor_type;location;lat;lon;timestamp;pressure;altitude;pressure_sealevel;temperature;humidity
72975;BME280;74127;54.228;37.632;2023-12-07T00:01:27;1010.861;;;-10.92;79.74023
72975;BME280;74127;54.228;37.632;2023-12-07T00:05:27;1010.861;;;-10.92;79.74023
72975;BME280;74127;54.228;37.632;2023-12-07T00:09:27;1010.901;;;-10.88;79.81934
72975;BME280;74127;54.228;37.632;2023-12-07T00:13:27;1010.868;;;-10.87;79.96484
72975;BME280;74127;54.228;37.632;2023-12-07T00:17:27;1010.873;;;-10.84;79.91895
72975;BME280;74127;54.228;37.632;2023-12-07T00:21:27;1010.82;;;-10.73;79.83789
72975;BME280;74127;54.228;37.632;2023-12-07T00:25:27;1010.82;;;-10.73;79.83789
72975;BME280;74127;54.228;37.632;2023-12-07T00:29:27;1010.882;;;-10.74;79.71094
72975;BME280;74127;54.228;37.632;2023-12-07T00:33:27;1010.852;;;-10.8;79.79395
72975;BME280;74127;54.228;37.632;2023-12-07T00:37:27;1010.887;;;-10.74;79.84668
72975;BME280;74127;54.228;37.632;2023-12-07T00:41:27;1010.892;;;-10.6;79.88379
72975;BME280;74127;54.228;37.632;2023-12-07T00:45:27;1010.892;;;-10.6;79.88379
72975;BME280;74127;54.228;37.632;2023-12-07T00:49:27;1010.894;;;-10.54;79.81152
72975;BME280;74127;54.228;37.632;2023-12-07T00:53:27;1011.053;;;-10.59;79.92578
72975;BME280;74127;54.228;37.632;2023-12-07T00:57:27;1011.06;;;-10.55;79.96387
72975;BME280;74127;54.228;37.632;2023-12-07T01:01:27;1011.031;;;-10.53;80.01953
72975;BME280;74127;54.228;37.632;2023-12-07T01:05:27;1011.031;;;-10.53;80.01953
72975;BME280;74127;54.228;37.632;2023-12-07T01:09:27;1011.092;;;-10.6;79.94531
72975;BME280;74127;54.228;37.632;2023-12-07T01:13:27;1011.15;;;-10.56;79.99316
72975;BME280;74127;54.228;37.632;2023-12-07T01:17:27;1011.197;;;-10.46;80.04199
72975;BME280;74127;54.228;37.632;2023-12-07T01:21:27;1011.185;;;-10.34;80.0752
72975;BME280;74127;54.228;37.632;2023-12-07T01:25:27;1011.185;;;-10.34;80.0752
72975;BME280;74127;54.228;37.632;2023-12-07T01:29:27;1011.131;;;-10.19;79.96191
72975;BME280;74127;54.228;37.632;2023-12-07T01:33:27;1011.213;;;-10.13;79.84961
72975;BME280;74127;54.228;37.632;2023-12-07T01:37:27;1011.209;;;-10.1;79.89551
72975;BME280;74127;54.228;37.632;2023-12-07T01:41:27;1011.186;;;-10.11;79.88379
72975;BME280;74127;54.228;37.632;2023-12-07T01:45:27;1011.186;;;-10.11;79.88379
72975;BME280;74127;54.228;37.632;2023-12-07T01:49:27;1011.232;;;-10.06;80.00781
72975;BME280;74127;54.228;37.632;2023-12-07T01:53:27;1011.218;;;-10.02;80.00488
72975;BME280;74127;54.228;37.632;2023-12-07T01:57:27;1011.235;;;-9.95;80.0791
72975;BME280;74127;54.228;37.632;2023-12-07T02:01:27;1011.253;;;-9.85;80.29395
72975;BME280;74127;54.228;37.632;2023-12-07T02:05:27;1011.253;;;-9.85;80.29395
72975;BME280;74127;54.228;37.632;2023-12-07T02:09:27;1011.343;;;-9.8;80.33594
72975;BME280;74127;54.228;37.632;2023-12-07T02:13:27;1011.301;;;-9.74;80.27441
72975;BME280;74127;54.228;37.632;2023-12-07T02:17:28;1011.332;;;-9.67;80.0293
72975;BME280;74127;54.228;37.632;2023-12-07T02:25:29;1011.406;;;-9.61;79.65234
72975;BME280;74127;54.228;37.632;2023-12-07T02:29:27;1011.409;;;-9.53;79.30469
72975;BME280;74127;54.228;37.632;2023-12-07T02:33:27;1011.384;;;-9.58;79.2959
72975;BME280;74127;54.228;37.632;2023-12-07T02:37:27;1011.441;;;-9.57;78.89551
72975;BME280;74127;54.228;37.632;2023-12-07T02:41:27;1011.537;;;-9.55;79.375
72975;BME280;74127;54.228;37.632;2023-12-07T02:45:27;1011.537;;;-9.55;79.375
72975;BME280;74127;54.228;37.632;2023-12-07T02:49:27;1011.602;;;-9.54;79.37695
72975;BME280;74127;54.228;37.632;2023-12-07T02:53:27;1011.603;;;-9.45;79.09375
72975;BME280;74127;54.228;37.632;2023-12-07T02:57:27;1011.691;;;-9.4;79.56641
72975;BME280;74127;54.228;37.632;2023-12-07T03:01:27;1011.709;;;-9.39;79.44434
72975;BME280;74127;54.228;37.632;2023-12-07T03:05:27;1011.709;;;-9.39;79.44434
72975;BME280;74127;54.228;37.632;2023-12-07T03:09:27;1011.649;;;-9.4;79.13379
72975;BME280;74127;54.228;37.632;2023-12-07T03:13:27;1011.733;;;-9.43;78.94336
72975;BME280;74127;54.228;37.632;2023-12-07T03:17:27;1011.798;;;-9.44;78.82813
72975;BME280;74127;54.228;37.632;2023-12-07T03:21:27;1011.799;;;-9.49;78.84766
72975;BME280;74127;54.228;37.632;2023-12-07T03:25:27;1011.799;;;-9.49;78.84766
72975;BME280;74127;54.228;37.632;2023-12-07T03:29:27;1011.786;;;-9.53;78.99609
72975;BME280;74127;54.228;37.632;2023-12-07T03:33:28;1011.844;;;-9.5;79.26855
72975;BME280;74127;54.228;37.632;2023-12-07T03:37:27;1011.896;;;-9.48;78.97559
72975;BME280;74127;54.228;37.632;2023-12-07T03:41:27;1011.921;;;-9.43;79.18848
72975;BME280;74127;54.228;37.632;2023-12-07T03:45:27;1011.921;;;-9.43;79.18848
72975;BME280;74127;54.228;37.632;2023-12-07T03:49:27;1011.866;;;-9.4;79.31055
72975;BME280;74127;54.228;37.632;2023-12-07T03:53:27;1011.872;;;-9.31;79.83203
72975;BME280;74127;54.228;37.632;2023-12-07T03:57:27;1011.824;;;-9.24;80.46387
72975;BME280;74127;54.228;37.632;2023-12-07T04:01:27;1011.829;;;-9.23;79.70117
72975;BME280;74127;54.228;37.632;2023-12-07T04:05:27;1011.829;;;-9.23;79.70117
72975;BME280;74127;54.228;37.632;2023-12-07T04:09:27;1011.895;;;-9.25;79.85254
72975;BME280;74127;54.228;37.632;2023-12-07T04:13:27;1011.892;;;-9.23;79.68262
72975;BME280;74127;54.228;37.632;2023-12-07T04:17:27;1011.93;;;-9.2;79.81152
72975;BME280;74127;54.228;37.632;2023-12-07T04:21:27;1011.953;;;-9.29;79.73242
72975;BME280;74127;54.228;37.632;2023-12-07T04:25:27;1011.953;;;-9.29;79.73242
72975;BME280;74127;54.228;37.632;2023-12-07T04:29:27;1012.01;;;-9.3;79.33887
72975;BME280;74127;54.228;37.632;2023-12-07T04:33:27;1011.955;;;-9.4;78.66113
72975;BME280;74127;54.228;37.632;2023-12-07T04:37:27;1012.025;;;-9.44;78.37402
72975;BME280;74127;54.228;37.632;2023-12-07T04:41:27;1012.09;;;-9.44;78.7041
72975;BME280;74127;54.228;37.632;2023-12-07T04:45:27;1012.09;;;-9.44;78.7041
72975;BME280;74127;54.228;37.632;2023-12-07T04:49:27;1012.057;;;-9.47;78.56445
72975;BME280;74127;54.228;37.632;2023-12-07T04:53:27;1012.06;;;-9.47;78.94629
72975;BME280;74127;54.228;37.632;2023-12-07T04:57:27;1012.162;;;-9.48;79.25391
72975;BME280;74127;54.228;37.632;2023-12-07T05:01:27;1012.262;;;-9.44;79.60059
72975;BME280;74127;54.228;37.632;2023-12-07T05:05:27;1012.262;;;-9.44;79.60059
72975;BME280;74127;54.228;37.632;2023-12-07T05:09:27;1012.319;;;-9.42;79.54395
72975;BME280;74127;54.228;37.632;2023-12-07T05:13:27;1012.344;;;-9.51;78.85645
72975;BME280;74127;54.228;37.632;2023-12-07T05:17:27;1012.387;;;-9.59;78.85156
72975;BME280;74127;54.228;37.632;2023-12-07T05:21:27;1012.475;;;-9.63;79.11035
72975;BME280;74127;54.228;37.632;2023-12-07T05:25:27;1012.475;;;-9.63;79.11035
72975;BME280;74127;54.228;37.632;2023-12-07T05:29:27;1012.568;;;-9.64;79.18066
72975;BME280;74127;54.228;37.632;2023-12-07T05:33:27;1012.57;;;-9.63;79.30762
72975;BME280;74127;54.228;37.632;2023-12-07T05:37:27;1012.673;;;-9.58;79.19238
72975;BME280;74127;54.228;37.632;2023-12-07T05:41:27;1012.668;;;-9.59;78.97656
72975;BME280;74127;54.228;37.632;2023-12-07T05:45:27;1012.668;;;-9.59;78.97656
72975;BME280;74127;54.228;37.632;2023-12-07T05:49:27;1012.642;;;-9.58;78.87305
72975;BME280;74127;54.228;37.632;2023-12-07T05:53:27;1012.777;;;-9.51;79.08301
72975;BME280;74127;54.228;37.632;2023-12-07T05:57:27;1012.719;;;-9.52;79.08203
72975;BME280;74127;54.228;37.632;2023-12-07T06:01:27;1012.688;;;-9.5;79.10547
72975;BME280;74127;54.228;37.632;2023-12-07T06:05:27;1012.688;;;-9.5;79.10547
72975;BME280;74127;54.228;37.632;2023-12-07T06:09:27;1012.572;;;-9.48;78.8418
72975;BME280;74127;54.228;37.632;2023-12-07T06:13:27;1012.628;;;-9.47;78.8125
72975;BME280;74127;54.228;37.632;2023-12-07T06:17:27;1012.65;;;-9.47;78.73828
72975;BME280;74127;54.228;37.632;2023-12-07T06:21:27;1012.657;;;-9.38;79.01367
72975;BME280;74127;54.228;37.632;2023-12-07T06:25:27;1012.657;;;-9.38;79.01367
72975;BME280;74127;54.228;37.632;2023-12-07T06:29:27;1012.697;;;-9.31;78.96582
72975;BME280;74127;54.228;37.632;2023-12-07T06:33:27;1012.688;;;-9.24;78.80469
72975;BME280;74127;54.228;37.632;2023-12-07T06:37:27;1012.728;;;-9.19;78.46094
72975;BME280;74127;54.228;37.632;2023-12-07T06:41:27;1012.793;;;-9.11;78.10547
72975;BME280;74127;54.228;37.632;2023-12-07T06:45:27;1012.793;;;-9.11;78.10547
72975;BME280;74127;54.228;37.632;2023-12-07T06:49:27;1012.803;;;-9;78.03418
72975;BME280;74127;54.228;37.632;2023-12-07T06:53:27;1012.82;;;-8.83;77.75586
72975;BME280;74127;54.228;37.632;2023-12-07T06:57:27;1012.784;;;-8.7;77.78125
72975;BME280;74127;54.228;37.632;2023-12-07T07:01:27;1012.838;;;-8.59;77.57324
72975;BME280;74127;54.228;37.632;2023-12-07T07:05:27;1012.838;;;-8.59;77.57324
72975;BME280;74127;54.228;37.632;2023-12-07T07:09:27;1012.758;;;-8.46;76.89453
72975;BME280;74127;54.228;37.632;2023-12-07T07:13:27;1012.891;;;-8.43;76.54883
72975;BME280;74127;54.228;37.632;2023-12-07T07:17:27;1012.907;;;-8.51;76.80176
72975;BME280;74127;54.228;37.632;2023-12-07T07:21:27;1012.875;;;-8.4;76.7002
72975;BME280;74127;54.228;37.632;2023-12-07T07:25:27;1012.875;;;-8.4;76.7002
72975;BME280;74127;54.228;37.632;2023-12-07T07:29:27;1012.891;;;-8.14;76.28125
72975;BME280;74127;54.228;37.632;2023-12-07T07:33:27;1012.864;;;-8.03;76.02148
72975;BME280;74127;54.228;37.632;2023-12-07T07:37:27;1012.947;;;-8.01;75.36426
72975;BME280;74127;54.228;37.632;2023-12-07T07:41:27;1013.098;;;-7.72;75.61328
72975;BME280;74127;54.228;37.632;2023-12-07T07:45:27;1013.098;;;-7.72;75.61328
72975;BME280;74127;54.228;37.632;2023-12-07T07:49:27;1013.111;;;-8;76.55664
72975;BME280;74127;54.228;37.632;2023-12-07T07:53:27;1013.071;;;-8.01;76.87598
72975;BME280;74127;54.228;37.632;2023-12-07T07:57:27;1013.136;;;-6.79;75.4375
72975;BME280;74127;54.228;37.632;2023-12-07T08:01:27;1013.095;;;-5.9;73.06836
72975;BME280;74127;54.228;37.632;2023-12-07T08:05:27;1013.095;;;-5.9;73.06836
72975;BME280;74127;54.228;37.632;2023-12-07T08:09:27;1013.102;;;-5.38;73.77539
72975;BME280;74127;54.228;37.632;2023-12-07T08:13:27;1013.128;;;-5.35;74.65527
72975;BME280;74127;54.228;37.632;2023-12-07T08:17:27;1013.096;;;-5.22;75.79199
72975;BME280;74127;54.228;37.632;2023-12-07T08:21:27;1013.058;;;-5.28;75.46973
72975;BME280;74127;54.228;37.632;2023-12-07T08:25:27;1013.058;;;-5.28;75.46973
72975;BME280;74127;54.228;37.632;2023-12-07T08:29:27;1012.976;;;-4.86;73.67773
72975;BME280;74127;54.228;37.632;2023-12-07T08:33:27;1013.123;;;-4.33;70.03906
72975;BME280;74127;54.228;37.632;2023-12-07T08:37:27;1013.104;;;-4.15;68.90625
72975;BME280;74127;54.228;37.632;2023-12-07T08:41:27;1013.188;;;-4.3;66.19141
72975;BME280;74127;54.228;37.632;2023-12-07T08:45:27;1013.188;;;-4.3;66.19141
72975;BME280;74127;54.228;37.632;2023-12-07T08:49:27;1013.132;;;-4.1;66.65332
72975;BME280;74127;54.228;37.632;2023-12-07T08:53:27;1013.118;;;-4.07;62.42285
72975;BME280;74127;54.228;37.632;2023-12-07T08:57:27;1013.202;;;-4.17;61.00195
72975;BME280;74127;54.228;37.632;2023-12-07T09:01:27;1013.045;;;-4.48;64.53027
72975;BME280;74127;54.228;37.632;2023-12-07T09:05:28;1013.045;;;-4.48;64.53027
72975;BME280;74127;54.228;37.632;2023-12-07T09:09:27;1013.011;;;-4.6;68.43555
72975;BME280;74127;54.228;37.632;2023-12-07T09:13:27;1012.998;;;-5.02;66.96777
72975;BME280;74127;54.228;37.632;2023-12-07T09:17:28;1012.961;;;-6.06;67.58301
72975;BME280;74127;54.228;37.632;2023-12-07T09:21:28;1012.9;;;-6.87;72.09082
72975;BME280;74127;54.228;37.632;2023-12-07T09:25:28;1012.9;;;-6.87;72.09082
72975;BME280;74127;54.228;37.632;2023-12-07T09:29:28;1013.084;;;-7.21;69.78906
72975;BME280;74127;54.228;37.632;2023-12-07T09:33:28;1012.956;;;-7.64;73.08789
72975;BME280;74127;54.228;37.632;2023-12-07T09:37:28;1012.953;;;-7.74;72.65527
72975;BME280;74127;54.228;37.632;2023-12-07T09:41:28;1012.957;;;-7.88;74.15625
72975;BME280;74127;54.228;37.632;2023-12-07T09:45:28;1012.957;;;-7.88;74.15625
72975;BME280;74127;54.228;37.632;2023-12-07T09:49:29;1012.874;;;-7.9;74.93945
72975;BME280;74127;54.228;37.632;2023-12-07T09:53:29;1012.788;;;-7.9;75.76758
72975;BME280;74127;54.228;37.632;2023-12-07T09:57:28;1012.698;;;-7.94;75.55273
72975;BME280;74127;54.228;37.632;2023-12-07T10:01:28;1012.725;;;-7.99;74.20898
72975;BME280;74127;54.228;37.632;2023-12-07T10:05:28;1012.725;;;-7.99;74.20898
72975;BME280;74127;54.228;37.632;2023-12-07T10:09:28;1012.805;;;-8.04;75.12012
72975;BME280;74127;54.228;37.632;2023-12-07T10:13:29;1012.707;;;-8.08;76.60352
72975;BME280;74127;54.228;37.632;2023-12-07T10:17:43;1012.747;;;-8.06;76.16211
72975;BME280;74127;54.228;37.632;2023-12-07T10:25:28;1012.763;;;-8.11;75.45801
72975;BME280;74127;54.228;37.632;2023-12-07T10:29:29;1012.707;;;-8.15;76.26855
72975;BME280;74127;54.228;37.632;2023-12-07T10:33:28;1012.601;;;-8.21;76.66406
72975;BME280;74127;54.228;37.632;2023-12-07T10:37:28;1012.518;;;-8.28;76.57813
72975;BME280;74127;54.228;37.632;2023-12-07T10:41:28;1012.592;;;-8.34;76.85547
72975;BME280;74127;54.228;37.632;2023-12-07T10:45:29;1012.592;;;-8.34;76.85547
72975;BME280;74127;54.228;37.632;2023-12-07T10:49:28;1012.461;;;-8.43;76.83789
72975;BME280;74127;54.228;37.632;2023-12-07T10:53:29;1012.424;;;-8.61;76.18555
72975;BME280;74127;54.228;37.632;2023-12-07T11:01:28;1012.55;;;-8.74;76.31641
72975;BME280;74127;54.228;37.632;2023-12-07T11:05:28;1012.55;;;-8.74;76.31641
72975;BME280;74127;54.228;37.632;2023-12-07T11:09:28;1012.47;;;-8.89;76.02148
72975;BME280;74127;54.228;37.632;2023-12-07T11:13:31;1012.437;;;-9.07;76.41211
72975;BME280;74127;54.228;37.632;2023-12-07T11:17:28;1012.479;;;-9.19;76.19336
72975;BME280;74127;54.228;37.632;2023-12-07T11:21:28;1012.438;;;-9.21;75.54883
72975;BME280;74127;54.228;37.632;2023-12-07T11:25:28;1012.438;;;-9.21;75.54883
72975;BME280;74127;54.228;37.632;2023-12-07T11:29:28;1012.393;;;-9.28;75.33203
72975;BME280;74127;54.228;37.632;2023-12-07T11:33:29;1012.432;;;-9.37;75.70801
72975;BME280;74127;54.228;37.632;2023-12-07T11:41:34;1012.435;;;-9.47;75.89355
72975;BME280;74127;54.228;37.632;2023-12-07T11:45:47;1012.435;;;-9.47;75.89355
72975;BME280;74127;54.228;37.632;2023-12-07T11:49:28;1012.496;;;-9.65;76.06934
72975;BME280;74127;54.228;37.632;2023-12-07T11:53:31;1012.593;;;-9.88;76.35645
72975;BME280;74127;54.228;37.632;2023-12-07T11:57:29;1012.633;;;-9.96;76.85742
72975;BME280;74127;54.228;37.632;2023-12-07T12:01:28;1012.575;;;-9.98;76.98633
72975;BME280;74127;54.228;37.632;2023-12-07T12:05:28;1012.575;;;-9.98;76.98633
72975;BME280;74127;54.228;37.632;2023-12-07T12:09:28;1012.578;;;-10.07;76.95898
72975;BME280;74127;54.228;37.632;2023-12-07T12:17:28;1012.881;;;-10.32;76.92383
72975;BME280;74127;54.228;37.632;2023-12-07T12:21:28;1012.867;;;-10.43;76.91406
72975;BME280;74127;54.228;37.632;2023-12-07T12:25:28;1012.867;;;-10.43;76.91406
72975;BME280;74127;54.228;37.632;2023-12-07T12:29:28;1012.825;;;-10.61;77.14844
72975;BME280;74127;54.228;37.632;2023-12-07T12:33:28;1012.901;;;-10.77;77.19922
72975;BME280;74127;54.228;37.632;2023-12-07T12:37:30;1012.869;;;-10.74;77.24707
72975;BME280;74127;54.228;37.632;2023-12-07T12:41:28;1012.867;;;-10.79;77.19629
72975;BME280;74127;54.228;37.632;2023-12-07T12:45:28;1012.867;;;-10.79;77.19629
72975;BME280;74127;54.228;37.632;2023-12-07T12:49:35;1012.755;;;-10.87;77.05859
72975;BME280;74127;54.228;37.632;2023-12-07T12:53:28;1012.904;;;-11.02;77.18457
72975;BME280;74127;54.228;37.632;2023-12-07T12:57:28;1012.918;;;-11.14;77.2041
72975;BME280;74127;54.228;37.632;2023-12-07T13:01:28;1012.992;;;-11.32;77.15039
72975;BME280;74127;54.228;37.632;2023-12-07T13:05:28;1012.992;;;-11.32;77.15039
72975;BME280;74127;54.228;37.632;2023-12-07T13:09:28;1013.004;;;-11.5;77.42285
72975;BME280;74127;54.228;37.632;2023-12-07T13:13:28;1013.041;;;-11.55;77.48633
72975;BME280;74127;54.228;37.632;2023-12-07T13:17:28;1012.986;;;-11.63;77.57324
72975;BME280;74127;54.228;37.632;2023-12-07T13:21:28;1013.005;;;-11.78;77.33008
72975;BME280;74127;54.228;37.632;2023-12-07T13:25:28;1013.005;;;-11.78;77.33008
72975;BME280;74127;54.228;37.632;2023-12-07T13:29:28;1013.072;;;-11.93;77.58887
72975;BME280;74127;54.228;37.632;2023-12-07T13:33:28;1013.166;;;-12.04;77.62988
72975;BME280;74127;54.228;37.632;2023-12-07T13:37:28;1013.187;;;-12.1;77.95703
72975;BME280;74127;54.228;37.632;2023-12-07T13:41:28;1013.206;;;-12.13;77.90039
72975;BME280;74127;54.228;37.632;2023-12-07T13:45:28;1013.206;;;-12.13;77.90039
72975;BME280;74127;54.228;37.632;2023-12-07T13:49:28;1013.138;;;-12.22;77.97559
72975;BME280;74127;54.228;37.632;2023-12-07T13:53:28;1013.188;;;-12.24;78.0625
72975;BME280;74127;54.228;37.632;2023-12-07T13:57:28;1013.151;;;-12.39;77.89258
72975;BME280;74127;54.228;37.632;2023-12-07T14:01:28;1013.177;;;-12.46;77.88867
72975;BME280;74127;54.228;37.632;2023-12-07T14:05:28;1013.177;;;-12.46;77.88867
72975;BME280;74127;54.228;37.632;2023-12-07T14:09:28;1013.181;;;-12.54;77.94629
72975;BME280;74127;54.228;37.632;2023-12-07T14:13:28;1013.211;;;-12.66;77.77832
72975;BME280;74127;54.228;37.632;2023-12-07T14:17:28;1013.327;;;-12.81;77.51758
72975;BME280;74127;54.228;37.632;2023-12-07T14:21:28;1013.321;;;-12.96;77.50781
72975;BME280;74127;54.228;37.632;2023-12-07T14:25:28;1013.321;;;-12.96;77.50781
72975;BME280;74127;54.228;37.632;2023-12-07T14:29:28;1013.273;;;-13.07;77.5293
72975;BME280;74127;54.228;37.632;2023-12-07T14:33:28;1013.385;;;-13.19;77.5293
72975;BME280;74127;54.228;37.632;2023-12-07T14:37:28;1013.375;;;-13.24;77.6084
72975;BME280;74127;54.228;37.632;2023-12-07T14:41:28;1013.402;;;-13.31;77.61719
72975;BME280;74127;54.228;37.632;2023-12-07T14:45:28;1013.402;;;-13.31;77.61719
72975;BME280;74127;54.228;37.632;2023-12-07T14:49:28;1013.391;;;-13.36;77.75098
72975;BME280;74127;54.228;37.632;2023-12-07T14:53:28;1013.486;;;-13.45;77.68262
72975;BME280;74127;54.228;37.632;2023-12-07T14:57:28;1013.432;;;-13.53;77.74805
72975;BME280;74127;54.228;37.632;2023-12-07T15:01:28;1013.415;;;-13.58;77.58691
72975;BME280;74127;54.228;37.632;2023-12-07T15:05:28;1013.415;;;-13.58;77.58691
72975;BME280;74127;54.228;37.632;2023-12-07T15:09:28;1013.412;;;-13.67;77.58105
72975;BME280;74127;54.228;37.632;2023-12-07T15:13:28;1013.456;;;-13.74;77.66895
72975;BME280;74127;54.228;37.632;2023-12-07T15:17:28;1013.53;;;-13.86;77.79883
72975;BME280;74127;54.228;37.632;2023-12-07T15:21:28;1013.431;;;-13.89;77.82227
72975;BME280;74127;54.228;37.632;2023-12-07T15:25:28;1013.431;;;-13.89;77.82227
72975;BME280;74127;54.228;37.632;2023-12-07T15:29:28;1013.453;;;-13.95;77.73047
72975;BME280;74127;54.228;37.632;2023-12-07T15:33:28;1013.424;;;-13.99;77.95801
72975;BME280;74127;54.228;37.632;2023-12-07T15:37:28;1013.495;;;-13.9;78.25098
72975;BME280;74127;54.228;37.632;2023-12-07T15:41:30;1013.494;;;-13.74;78.33203
72975;BME280;74127;54.228;37.632;2023-12-07T15:45:28;1013.494;;;-13.74;78.33203
72975;BME280;74127;54.228;37.632;2023-12-07T15:49:28;1013.622;;;-13.52;78.55566
72975;BME280;74127;54.228;37.632;2023-12-07T15:53:28;1013.625;;;-13.27;78.74707
72975;BME280;74127;54.228;37.632;2023-12-07T15:57:28;1013.71;;;-13;78.86133
72975;BME280;74127;54.228;37.632;2023-12-07T16:01:28;1013.75;;;-12.78;78.73926
72975;BME280;74127;54.228;37.632;2023-12-07T16:05:28;1013.75;;;-12.78;78.73926
72975;BME280;74127;54.228;37.632;2023-12-07T16:09:28;1013.738;;;-12.58;79.41211
72975;BME280;74127;54.228;37.632;2023-12-07T16:13:28;1013.85;;;-12.26;79.38867
72975;BME280;74127;54.228;37.632;2023-12-07T16:17:28;1013.869;;;-12.1;78.50781
72975;BME280;74127;54.228;37.632;2023-12-07T16:21:28;1013.822;;;-11.91;78.60547
72975;BME280;74127;54.228;37.632;2023-12-07T16:25:28;1013.822;;;-11.91;78.60547
72975;BME280;74127;54.228;37.632;2023-12-07T16:29:28;1013.912;;;-11.86;77.80762
72975;BME280;74127;54.228;37.632;2023-12-07T16:33:28;1013.86;;;-11.8;77.70605
72975;BME280;74127;54.228;37.632;2023-12-07T16:37:28;1013.81;;;-11.78;78.51855
72975;BME280;74127;54.228;37.632;2023-12-07T16:41:28;1013.736;;;-11.67;78.35547
72975;BME280;74127;54.228;37.632;2023-12-07T16:45:28;1013.736;;;-11.67;78.35547
72975;BME280;74127;54.228;37.632;2023-12-07T16:49:28;1013.701;;;-11.65;78.04297
72975;BME280;74127;54.228;37.632;2023-12-07T16:53:31;1013.654;;;-11.7;78.2168
72975;BME280;74127;54.228;37.632;2023-12-07T16:57:28;1013.658;;;-11.62;78.36426
72975;BME280;74127;54.228;37.632;2023-12-07T17:01:28;1013.714;;;-11.57;78.67188
72975;BME280;74127;54.228;37.632;2023-12-07T17:05:28;1013.714;;;-11.57;78.67188
72975;BME280;74127;54.228;37.632;2023-12-07T17:09:28;1013.726;;;-11.56;78.66211
72975;BME280;74127;54.228;37.632;2023-12-07T17:13:28;1013.729;;;-11.52;78.79395
72975;BME280;74127;54.228;37.632;2023-12-07T17:17:28;1013.739;;;-11.47;78.7207
72975;BME280;74127;54.228;37.632;2023-12-07T17:21:28;1013.699;;;-11.44;78.7998
72975;BME280;74127;54.228;37.632;2023-12-07T17:25:28;1013.699;;;-11.44;78.7998
72975;BME280;74127;54.228;37.632;2023-12-07T17:29:28;1013.762;;;-11.37;78.39941
72975;BME280;74127;54.228;37.632;2023-12-07T17:33:28;1013.794;;;-11.33;78.39844
72975;BME280;74127;54.228;37.632;2023-12-07T17:37:28;1013.745;;;-11.37;78.53516
72975;BME280;74127;54.228;37.632;2023-12-07T17:41:28;1013.691;;;-11.36;78.24121
72975;BME280;74127;54.228;37.632;2023-12-07T17:45:28;1013.691;;;-11.36;78.24121
72975;BME280;74127;54.228;37.632;2023-12-07T17:49:28;1013.823;;;-11.33;77.72168
72975;BME280;74127;54.228;37.632;2023-12-07T17:53:28;1013.681;;;-11.47;78.00293
72975;BME280;74127;54.228;37.632;2023-12-07T17:57:28;1013.727;;;-11.42;77.87793
72975;BME280;74127;54.228;37.632;2023-12-07T18:01:28;1013.799;;;-11.43;78.0625
72975;BME280;74127;54.228;37.632;2023-12-07T18:05:28;1013.799;;;-11.43;78.0625
72975;BME280;74127;54.228;37.632;2023-12-07T18:09:28;1013.844;;;-11.41;78.4873
72975;BME280;74127;54.228;37.632;2023-12-07T18:13:28;1013.868;;;-11.37;78.76953
72975;BME280;74127;54.228;37.632;2023-12-07T18:17:28;1013.831;;;-11.36;78.875
72975;BME280;74127;54.228;37.632;2023-12-07T18:21:29;1013.88;;;-11.34;78.53027
72975;BME280;74127;54.228;37.632;2023-12-07T18:25:28;1013.88;;;-11.34;78.53027
72975;BME280;74127;54.228;37.632;2023-12-07T18:29:28;1013.777;;;-11.36;78.64941
72975;BME280;74127;54.228;37.632;2023-12-07T18:33:28;1013.823;;;-11.31;78.83496
72975;BME280;74127;54.228;37.632;2023-12-07T18:37:28;1013.833;;;-11.29;79.40234
72975;BME280;74127;54.228;37.632;2023-12-07T18:41:28;1013.806;;;-11.2;79.55176
72975;BME280;74127;54.228;37.632;2023-12-07T18:45:28;1013.806;;;-11.2;79.55176
72975;BME280;74127;54.228;37.632;2023-12-07T18:49:28;1013.857;;;-11.18;79.84375
72975;BME280;74127;54.228;37.632;2023-12-07T18:53:28;1013.925;;;-11.16;79.34473
72975;BME280;74127;54.228;37.632;2023-12-07T18:57:28;1013.938;;;-11.15;79.71582
72975;BME280;74127;54.228;37.632;2023-12-07T19:01:29;1013.856;;;-11.11;79.88965
72975;BME280;74127;54.228;37.632;2023-12-07T19:05:28;1013.856;;;-11.11;79.88965
72975;BME280;74127;54.228;37.632;2023-12-07T19:09:28;1013.858;;;-11.05;79.23145
72975;BME280;74127;54.228;37.632;2023-12-07T19:13:28;1013.901;;;-11.17;78.78711
72975;BME280;74127;54.228;37.632;2023-12-07T19:17:28;1013.816;;;-11.16;79.34375
72975;BME280;74127;54.228;37.632;2023-12-07T19:21:28;1013.861;;;-11.12;79.47559
72975;BME280;74127;54.228;37.632;2023-12-07T19:25:28;1013.861;;;-11.12;79.47559
72975;BME280;74127;54.228;37.632;2023-12-07T19:29:28;1013.858;;;-11.07;79.3916
72975;BME280;74127;54.228;37.632;2023-12-07T19:33:29;1013.803;;;-11.07;79.52539
72975;BME280;74127;54.228;37.632;2023-12-07T19:37:29;1013.846;;;-11.08;79.25879
72975;BME280;74127;54.228;37.632;2023-12-07T19:41:29;1013.743;;;-10.99;79.79785
72975;BME280;74127;54.228;37.632;2023-12-07T19:45:29;1013.743;;;-10.99;79.79785
72975;BME280;74127;54.228;37.632;2023-12-07T19:49:29;1013.766;;;-10.96;79.69043
72975;BME280;74127;54.228;37.632;2023-12-07T19:53:29;1013.698;;;-10.87;79.99609
72975;BME280;74127;54.228;37.632;2023-12-07T19:57:29;1013.635;;;-10.82;79.66602
72975;BME280;74127;54.228;37.632;2023-12-07T20:01:29;1013.7;;;-10.82;79.26563
72975;BME280;74127;54.228;37.632;2023-12-07T20:05:29;1013.7;;;-10.82;79.26563
72975;BME280;74127;54.228;37.632;2023-12-07T20:09:29;1013.639;;;-10.78;79.23145
72975;BME280;74127;54.228;37.632;2023-12-07T20:13:29;1013.748;;;-10.79;79.08594
72975;BME280;74127;54.228;37.632;2023-12-07T20:17:29;1013.63;;;-10.79;78.72656
72975;BME280;74127;54.228;37.632;2023-12-07T20:21:29;1013.632;;;-10.81;78.875